Time;durP1;ratioP1;P1;durP2;ratioP2;P2;SDS_P1;SDS_P2;PMS_P1;PMS_P2;Temp;Humidity;BMP_temperature;BMP_pressure;BME280_temperature;BME280_humidity;BME280_pressure;Samples;Min_cycle;Max_cycle;Signal;HPM_P1;HPM_P2
2024/02/26 00:00:09;;;;;;;5.63;4.80;;;;;;;7.14;64.33;94427.75;4988810;28;20263;-69
2024/02/26 00:02:38;;;;;;;5.70;4.50;;;;;;;6.63;65.91;94424.78;4990290;28;20192;-68
2024/02/26 00:05:07;;;;;;;6.10;4.97;;;;;;;6.52;66.40;94423.66;4990633;28;20464;-69
2024/02/26 00:07:32;;;;;;;5.27;4.33;;;;;;;6.50;67.01;94420.31;4996854;28;20416;-67
2024/02/26 00:09:57;;;;;;;5.43;5.00;;;;;;;6.96;65.35;94417.50;5000192;28;20420;-69
2024/02/26 00:12:23;;;;;;;5.60;4.80;;;;;;;6.72;65.95;94427.66;4999717;28;20184;-68
2024/02/26 00:14:49;;;;;;;6.37;4.23;;;;;;;6.60;66.44;94427.59;5001234;28;20177;-68
2024/02/26 00:17:15;;;;;;;4.33;3.93;;;;;;;6.71;65.56;94433.81;4999334;28;20184;-69
2024/02/26 00:19:40;;;;;;;5.63;4.70;;;;;;;6.51;66.77;94436.78;4993784;28;20423;-69
2024/02/26 00:22:06;;;;;;;5.73;4.70;;;;;;;6.65;66.74;94438.56;4987556;28;20226;-68
2024/02/26 00:24:31;;;;;;;12.93;5.30;;;;;;;6.61;66.37;94443.09;4986828;28;20323;-68
2024/02/26 00:26:57;;;;;;;6.17;4.70;;;;;;;6.85;65.73;94437.34;4986902;28;20267;-69
2024/02/26 00:29:22;;;;;;;6.40;5.00;;;;;;;6.63;66.47;94443.84;4986880;28;20195;-68
2024/02/26 00:31:48;;;;;;;5.80;5.30;;;;;;;6.76;66.14;94439.59;4986798;28;20203;-69
2024/02/26 00:34:14;;;;;;;6.97;4.57;;;;;;;6.85;65.53;94446.03;4986633;28;20507;-69
2024/02/26 00:36:39;;;;;;;5.10;4.60;;;;;;;6.75;65.89;94439.69;4986386;28;20296;-68
2024/02/26 00:39:05;;;;;;;6.80;6.03;;;;;;;6.71;66.05;94443.41;4986530;28;20699;-69
2024/02/26 00:41:30;;;;;;;6.30;5.43;;;;;;;6.96;64.76;94432.31;4986554;28;20200;-69
2024/02/26 00:43:55;;;;;;;7.40;5.73;;;;;;;7.05;65.09;94434.38;4987193;28;20771;-69
2024/02/26 00:46:21;;;;;;;5.47;4.80;;;;;;;6.92;64.81;94430.81;4987543;28;20230;-69
2024/02/26 00:48:46;;;;;;;5.70;5.10;;;;;;;6.92;64.94;94433.44;4986958;28;20185;-69
2024/02/26 00:51:12;;;;;;;5.63;4.80;;;;;;;6.89;65.42;94426.63;4986702;28;20205;-69
2024/02/26 00:53:37;;;;;;;5.73;5.13;;;;;;;6.41;67.26;94428.66;4986818;28;20247;-69
2024/02/26 00:56:03;;;;;;;7.03;5.50;;;;;;;6.74;66.07;94419.75;4986708;28;20184;-69
2024/02/26 00:58:28;;;;;;;6.23;5.30;;;;;;;6.63;66.62;94416.97;4987080;28;20185;-67
2024/02/26 01:00:54;;;;;;;5.60;4.80;;;;;;;6.82;65.96;94411.47;4988642;28;20248;-67
2024/02/26 01:03:19;;;;;;;9.80;6.67;;;;;;;6.94;65.58;94400.28;4986765;28;20813;-69
2024/02/26 01:05:45;;;;;;;5.63;5.13;;;;;;;6.66;66.14;94403.75;4991311;28;20208;-70
2024/02/26 01:08:10;;;;;;;6.03;5.43;;;;;;;6.94;65.19;94402.88;4986168;28;20268;-69
2024/02/26 01:10:36;;;;;;;6.93;5.30;;;;;;;6.86;65.72;94405.97;4985992;28;21030;-69
2024/02/26 01:13:02;;;;;;;6.10;5.20;;;;;;;6.73;66.06;94410.25;4985991;28;20180;-69
2024/02/26 01:15:27;;;;;;;7.07;6.37;;;;;;;7.04;65.42;94411.84;4986351;28;20602;-69
2024/02/26 01:17:53;;;;;;;7.23;5.70;;;;;;;6.50;67.19;94409.88;4986424;28;20257;-69
2024/02/26 01:20:19;;;;;;;6.23;5.50;;;;;;;6.49;67.14;94400.38;4986300;28;20220;-69
2024/02/26 01:22:44;;;;;;;7.37;5.27;;;;;;;6.67;66.42;94395.84;4988498;28;20427;-69
2024/02/26 01:25:10;;;;;;;6.53;5.53;;;;;;;6.67;66.88;94400.22;4989950;28;20674;-68
2024/02/26 01:27:36;;;;;;;6.90;5.93;;;;;;;6.75;66.16;94390.97;4987851;28;20188;-68
2024/02/26 01:30:05;;;;;;;9.70;6.67;;;;;;;6.65;66.13;94402.06;4989714;28;20581;-68
2024/02/26 01:32:31;;;;;;;8.10;5.70;;;;;;;6.89;65.65;94392.75;4989253;28;20420;-70
2024/02/26 01:34:57;;;;;;;8.67;6.10;;;;;;;6.69;66.05;94386.16;4989726;28;20412;-69
2024/02/26 01:37:22;;;;;;;7.00;6.30;;;;;;;6.67;66.52;94395.00;4989204;28;20885;-68
2024/02/26 01:39:48;;;;;;;9.80;7.03;;;;;;;6.54;67.18;94395.75;4993329;28;20295;-69
2024/02/26 01:42:13;;;;;;;7.27;5.60;;;;;;;6.66;66.72;94401.13;4992397;28;20255;-69
2024/02/26 01:44:39;;;;;;;8.27;6.57;;;;;;;6.68;66.08;94400.09;4992310;28;20303;-67
2024/02/26 01:47:08;;;;;;;7.73;5.73;;;;;;;6.75;65.75;94405.78;4993112;28;20227;-69
2024/02/26 01:49:34;;;;;;;7.00;5.77;;;;;;;6.50;66.40;94401.25;4992393;28;20185;-69
2024/02/26 01:52:02;;;;;;;7.57;5.23;;;;;;;6.43;66.97;94410.34;4993944;28;20479;-69
2024/02/26 01:54:29;;;;;;;6.23;5.63;;;;;;;6.19;67.88;94410.00;4997010;28;20418;-69
2024/02/26 01:56:55;;;;;;;10.27;6.80;;;;;;;6.23;67.92;94409.75;4995971;28;20420;-69
2024/02/26 01:59:20;;;;;;;8.30;7.07;;;;;;;5.94;68.93;94406.25;4995325;28;20424;-69
2024/02/26 02:01:52;;;;;;;7.60;6.60;;;;;;;6.41;67.22;94404.38;4991889;28;20498;-69
2024/02/26 02:04:18;;;;;;;9.10;6.63;;;;;;;6.27;67.71;94407.81;4992651;28;20314;-69
2024/02/26 02:06:45;;;;;;;6.87;6.17;;;;;;;6.23;67.74;94408.91;4994940;28;20876;-68
2024/02/26 02:09:11;;;;;;;7.80;6.40;;;;;;;6.12;68.24;94410.38;4995429;28;20431;-68
2024/02/26 02:11:37;;;;;;;6.67;5.80;;;;;;;6.40;67.22;94408.75;4993956;28;20439;-68
2024/02/26 02:14:02;;;;;;;9.00;7.13;;;;;;;6.31;67.61;94414.53;4995346;28;20181;-68
2024/02/26 02:16:28;;;;;;;8.10;7.30;;;;;;;5.98;68.71;94405.16;4989855;28;20478;-69
2024/02/26 02:18:53;;;;;;;7.93;7.20;;;;;;;6.35;66.99;94410.78;4990822;28;20746;-68
2024/02/26 02:21:19;;;;;;;7.60;6.40;;;;;;;6.41;66.95;94397.41;4972180;28;20203;-69
2024/02/26 02:23:46;;;;;;;7.57;6.77;;;;;;;6.52;66.73;94415.84;4989578;28;20898;-69
2024/02/26 02:26:13;;;;;;;7.57;5.80;;;;;;;6.57;66.40;94399.94;4989987;28;20196;-69
2024/02/26 02:28:39;;;;;;;8.07;6.50;;;;;;;6.54;66.48;94411.38;4991182;28;20423;-69
2024/02/26 02:31:05;;;;;;;7.53;6.83;;;;;;;6.65;65.92;94407.28;4991816;28;20440;-69
2024/02/26 02:33:31;;;;;;;8.73;6.40;;;;;;;6.64;65.70;94413.41;4991177;28;20418;-69
2024/02/26 02:35:57;;;;;;;9.60;7.63;;;;;;;6.85;65.11;94409.53;4991920;28;20232;-69
2024/02/26 02:38:23;;;;;;;7.20;6.30;;;;;;;6.73;65.94;94410.25;4989431;28;20195;-69
2024/02/26 02:40:49;;;;;;;10.93;6.97;;;;;;;6.72;66.25;94414.63;4988625;28;20432;-69
2024/02/26 02:43:14;;;;;;;6.97;6.10;;;;;;;6.77;65.91;94412.59;4988558;28;20275;-69
2024/02/26 02:45:39;;;;;;;9.67;7.03;;;;;;;6.71;66.05;94419.97;4988550;28;20169;-68
2024/02/26 02:48:05;;;;;;;8.77;6.20;;;;;;;6.69;66.26;94417.44;4988065;28;20177;-68
2024/02/26 02:50:30;;;;;;;7.83;6.30;;;;;;;6.73;65.56;94416.31;4988313;28;20195;-68
2024/02/26 02:52:56;;;;;;;8.10;7.30;;;;;;;6.83;65.68;94406.19;4988549;28;20540;-69
2024/02/26 02:55:21;;;;;;;8.23;7.37;;;;;;;6.91;65.22;94414.34;4988137;28;20181;-70
2024/02/26 02:57:46;;;;;;;6.90;6.17;;;;;;;6.35;67.17;94424.69;4988908;28;20649;-69
2024/02/26 03:00:12;;;;;;;7.73;6.47;;;;;;;6.70;66.13;94413.06;4988269;28;20906;-69
2024/02/26 03:02:38;;;;;;;7.90;6.60;;;;;;;6.71;66.29;94412.13;4988234;28;20841;-68
2024/02/26 03:05:04;;;;;;;6.70;6.00;;;;;;;7.05;64.89;94408.28;4988464;28;20339;-68
2024/02/26 03:07:29;;;;;;;6.73;6.00;;;;;;;6.91;65.15;94419.56;4988026;28;20176;-69
2024/02/26 03:09:55;;;;;;;7.60;6.90;;;;;;;6.55;66.64;94412.22;4987831;28;20491;-69
2024/02/26 03:12:20;;;;;;;6.40;5.63;;;;;;;6.88;65.66;94411.09;4987713;28;20252;-69
2024/02/26 03:14:46;;;;;;;7.07;6.37;;;;;;;6.97;64.84;94398.34;4988147;28;20545;-69
2024/02/26 03:17:11;;;;;;;6.93;6.03;;;;;;;6.81;65.18;94384.56;4987912;28;20182;-70
2024/02/26 03:19:37;;;;;;;8.27;7.47;;;;;;;6.84;65.06;94386.16;4987960;28;20185;-69
2024/02/26 03:22:02;;;;;;;9.53;6.80;;;;;;;6.65;65.64;94394.25;4987410;28;20203;-69
2024/02/26 03:24:28;;;;;;;9.63;7.07;;;;;;;6.63;65.91;94403.94;4987840;28;20216;-69
2024/02/26 03:26:53;;;;;;;8.53;6.93;;;;;;;6.00;68.17;94397.22;4987383;28;20926;-69
2024/02/26 03:29:19;;;;;;;8.57;7.40;;;;;;;6.39;67.21;94396.66;4987438;28;20181;-68
2024/02/26 03:31:44;;;;;;;8.00;6.90;;;;;;;6.53;66.70;94403.66;4986910;28;20683;-68
2024/02/26 03:34:11;;;;;;;10.73;7.30;;;;;;;6.29;67.10;94401.56;4987678;28;20256;-69
2024/02/26 03:36:37;;;;;;;9.07;6.77;;;;;;;6.12;67.79;94399.97;4987629;28;20185;-69
2024/02/26 03:39:07;;;;;;;10.10;7.37;;;;;;;6.01;68.43;94398.91;4987943;28;20419;-68
2024/02/26 03:41:33;;;;;;;7.53;6.73;;;;;;;6.19;67.96;94412.63;4987131;28;20203;-67
2024/02/26 03:43:58;;;;;;;7.60;6.70;;;;;;;6.00;68.48;94405.91;4987413;28;20452;-69
2024/02/26 03:46:24;;;;;;;9.00;8.10;;;;;;;5.84;68.70;94424.13;4987654;28;20276;-69
2024/02/26 03:48:49;;;;;;;10.10;6.77;;;;;;;6.08;68.64;94414.09;4987567;28;20192;-68
2024/02/26 03:51:14;;;;;;;10.20;7.00;;;;;;;6.25;68.02;94422.69;4987386;28;20197;-69
2024/02/26 03:53:40;;;;;;;8.50;7.60;;;;;;;5.98;68.52;94423.38;4987547;28;20219;-69
2024/02/26 03:56:06;;;;;;;9.03;7.77;;;;;;;5.72;69.64;94428.25;4986933;28;20291;-69
2024/02/26 03:58:32;;;;;;;8.70;7.80;;;;;;;5.83;69.43;94419.00;4987172;28;20179;-69
2024/02/26 04:00:57;;;;;;;9.10;7.60;;;;;;;5.97;68.84;94428.66;4986738;28;20444;-69
2024/02/26 04:03:22;;;;;;;9.67;7.50;;;;;;;6.17;68.28;94432.72;4987133;28;20197;-67
2024/02/26 04:05:48;;;;;;;7.90;7.10;;;;;;;5.71;69.78;94431.78;4987405;28;20182;-68
2024/02/26 04:08:13;;;;;;;9.20;7.40;;;;;;;6.08;68.48;94432.31;4987786;28;20212;-68
2024/02/26 04:10:39;;;;;;;9.50;6.87;;;;;;;6.16;68.26;94429.25;4987178;28;20197;-68
2024/02/26 04:13:05;;;;;;;10.50;9.40;;;;;;;6.49;67.03;94429.03;4987442;28;20188;-68
2024/02/26 04:15:31;;;;;;;9.50;7.80;;;;;;;6.65;66.65;94438.56;4979245;28;20280;-68
2024/02/26 04:17:57;;;;;;;14.27;7.80;;;;;;;6.57;66.62;94432.03;4987147;28;20486;-69
2024/02/26 04:20:22;;;;;;;8.07;7.23;;;;;;;6.67;66.22;94437.53;4987644;28;20439;-69
2024/02/26 04:22:47;;;;;;;7.73;7.00;;;;;;;6.73;66.08;94434.56;4987511;28;20688;-69
2024/02/26 04:25:13;;;;;;;8.13;7.30;;;;;;;6.66;66.35;94419.38;4986299;28;20577;-68
2024/02/26 04:27:39;;;;;;;8.67;7.77;;;;;;;6.69;65.72;94424.44;4986852;28;20204;-70
2024/02/26 04:30:08;;;;;;;7.60;6.70;;;;;;;6.58;66.46;94419.84;4987019;28;20231;-69
2024/02/26 04:32:34;;;;;;;8.87;7.60;;;;;;;6.43;67.06;94413.78;4986731;28;20277;-68
2024/02/26 04:35:00;;;;;;;8.90;7.60;;;;;;;6.57;66.60;94416.41;4986845;28;20427;-69
2024/02/26 04:37:30;;;;;;;7.43;6.73;;;;;;;6.44;66.66;94419.84;4987480;28;20459;-70
2024/02/26 04:39:59;;;;;;;7.77;6.40;;;;;;;6.58;66.47;94399.00;4988697;28;21102;-70
2024/02/26 04:42:24;;;;;;;9.20;7.60;;;;;;;6.58;66.05;94402.44;4990276;28;20431;-69
2024/02/26 04:44:50;;;;;;;8.63;7.10;;;;;;;5.80;69.05;94380.13;4990449;28;20597;-68
2024/02/26 04:47:15;;;;;;;7.90;7.10;;;;;;;6.11;68.46;94400.88;4988269;28;20563;-68
2024/02/26 04:49:41;;;;;;;10.97;8.77;;;;;;;6.43;67.12;94455.47;4986485;28;20726;-70
2024/02/26 04:52:06;;;;;;;9.33;8.43;;;;;;;6.09;67.76;94433.97;4986282;28;20201;-68
2024/02/26 04:54:31;;;;;;;11.27;8.07;;;;;;;6.12;68.27;94433.00;4986008;28;20180;-69
2024/02/26 04:56:57;;;;;;;9.70;7.43;;;;;;;6.20;67.77;94442.97;4985725;28;20191;-69
2024/02/26 04:59:22;;;;;;;8.07;7.20;;;;;;;6.31;67.13;94423.16;4985864;28;20190;-68
2024/02/26 05:01:48;;;;;;;24.27;9.07;;;;;;;6.08;67.84;94432.31;4986463;28;20208;-69
2024/02/26 05:04:13;;;;;;;12.30;7.77;;;;;;;6.28;67.22;94446.81;4986888;28;20580;-70
2024/02/26 05:06:38;;;;;;;14.43;8.20;;;;;;;6.31;66.95;94445.78;4986960;28;20629;-68
2024/02/26 05:09:04;;;;;;;11.03;7.80;;;;;;;6.48;66.47;94431.75;4986773;28;20191;-69
2024/02/26 05:11:29;;;;;;;11.00;8.40;;;;;;;6.49;66.38;94436.84;4986399;28;20197;-68
2024/02/26 05:13:54;;;;;;;12.57;8.43;;;;;;;6.38;66.84;94454.91;4987653;28;20181;-69
2024/02/26 05:16:24;;;;;;;11.87;8.40;;;;;;;5.98;68.25;94454.63;4986981;28;20632;-68
2024/02/26 05:18:49;;;;;;;11.60;7.97;;;;;;;6.09;67.93;94425.34;4988086;28;20264;-68
2024/02/26 05:21:15;;;;;;;10.03;8.53;;;;;;;5.89;68.71;94413.44;4987723;28;20462;-68
2024/02/26 05:23:42;;;;;;;12.90;9.40;;;;;;;5.46;70.56;94413.28;4988486;28;20189;-69
2024/02/26 05:26:08;;;;;;;12.00;9.80;;;;;;;5.62;70.37;94411.50;4995034;28;20188;-69
2024/02/26 05:28:33;;;;;;;11.93;9.80;;;;;;;5.62;70.35;94402.84;4997035;28;20422;-69
2024/02/26 05:30:58;;;;;;;11.03;8.80;;;;;;;6.05;68.63;94393.44;4999727;28;20220;-69
2024/02/26 05:33:25;;;;;;;13.50;9.90;;;;;;;5.38;70.59;94392.88;5006228;28;20293;-70
2024/02/26 05:35:50;;;;;;;12.73;9.73;;;;;;;5.39;71.50;94389.38;4994511;28;20208;-68
2024/02/26 05:38:15;;;;;;;13.33;11.07;;;;;;;5.36;71.22;94401.69;4987654;28;20420;-68
2024/02/26 05:40:41;;;;;;;18.03;9.47;;;;;;;5.57;70.30;94403.09;4987451;28;20201;-69
2024/02/26 05:43:06;;;;;;;12.07;9.90;;;;;;;5.52;70.57;94403.34;4987149;28;20185;-68
2024/02/26 05:45:32;;;;;;;13.40;9.63;;;;;;;5.30;71.40;94408.09;4987027;28;20197;-69
2024/02/26 05:47:58;;;;;;;13.57;10.17;;;;;;;5.62;70.96;94410.63;4985717;28;20205;-68
2024/02/26 05:50:23;;;;;;;15.50;11.33;;;;;;;5.41;71.14;94423.06;4981128;28;20541;-68
2024/02/26 05:52:49;;;;;;;14.27;10.80;;;;;;;5.35;71.68;94428.63;4953587;28;20320;-68
2024/02/26 05:55:14;;;;;;;14.30;10.80;;;;;;;5.60;70.82;94441.97;4979640;28;20652;-69
2024/02/26 05:57:40;;;;;;;14.27;11.40;;;;;;;5.64;70.74;94448.66;4986736;28;20504;-68
2024/02/26 06:00:06;;;;;;;13.87;10.57;;;;;;;5.64;70.54;94448.66;4986734;28;20268;-70
2024/02/26 06:02:32;;;;;;;19.07;11.10;;;;;;;5.35;71.19;94452.03;4986668;28;20424;-70
2024/02/26 06:04:58;;;;;;;14.73;11.43;;;;;;;5.36;72.02;94451.94;4985962;28;20482;-68
2024/02/26 06:07:24;;;;;;;17.93;12.13;;;;;;;5.60;70.92;94451.50;4986179;28;20185;-70
2024/02/26 06:09:49;;;;;;;21.43;12.40;;;;;;;5.84;69.95;94457.97;4988532;28;20250;-68
2024/02/26 06:12:14;;;;;;;17.97;12.90;;;;;;;5.84;69.81;94457.13;4989125;28;20213;-70
2024/02/26 06:14:41;;;;;;;18.80;12.13;;;;;;;5.66;70.28;94464.19;4990397;28;20272;-69
2024/02/26 06:17:07;;;;;;;18.73;13.43;;;;;;;5.84;69.59;94472.75;4991004;28;20227;-69
2024/02/26 06:19:32;;;;;;;15.93;13.40;;;;;;;5.86;69.50;94476.09;4982262;28;20500;-69
2024/02/26 06:21:57;;;;;;;17.40;12.30;;;;;;;5.88;69.40;94476.84;4988271;28;20199;-68
2024/02/26 06:24:23;;;;;;;15.93;12.20;;;;;;;5.79;69.80;94478.22;4989065;28;20676;-68
2024/02/26 06:26:48;;;;;;;15.30;11.87;;;;;;;5.86;69.21;94476.94;4984984;28;20181;-68
2024/02/26 06:29:14;;;;;;;17.87;13.03;;;;;;;5.62;70.27;94483.50;4988624;28;20188;-68
2024/02/26 06:31:40;;;;;;;16.40;12.60;;;;;;;5.87;69.37;94482.97;4970420;28;20873;-66
2024/02/26 06:34:05;;;;;;;18.93;13.50;;;;;;;5.21;71.38;94490.03;4989866;28;20306;-66
2024/02/26 06:36:31;;;;;;;22.20;15.27;;;;;;;5.59;70.76;94489.72;4988860;28;20203;-68
2024/02/26 06:38:57;;;;;;;18.60;14.00;;;;;;;5.47;71.51;94464.38;4985091;28;20712;-68
2024/02/26 06:41:27;;;;;;;51.93;18.73;;;;;;;5.08;73.09;94473.44;4966705;28;20547;-68
2024/02/26 06:43:53;;;;;;;17.57;12.03;;;;;;;5.27;72.21;94471.50;4986680;28;20324;-67
2024/02/26 06:46:19;;;;;;;22.87;15.10;;;;;;;5.30;72.25;94467.91;4983570;28;20605;-68
2024/02/26 06:48:44;;;;;;;17.70;13.20;;;;;;;5.34;72.21;94471.16;5000073;28;20432;-68
2024/02/26 06:51:09;;;;;;;20.00;13.90;;;;;;;5.04;73.13;94470.13;5003319;28;20207;-69
2024/02/26 06:53:35;;;;;;;17.57;13.47;;;;;;;5.22;72.49;94478.72;5000554;28;20184;-67
2024/02/26 06:56:00;;;;;;;19.73;14.23;;;;;;;4.82;73.87;94482.59;4989508;28;20181;-66
2024/02/26 06:58:25;;;;;;;16.80;12.87;;;;;;;4.77;73.95;94481.97;4980471;28;20189;-69
2024/02/26 07:00:51;;;;;;;19.03;12.93;;;;;;;5.04;73.73;94488.34;4980954;28;20293;-68
2024/02/26 07:03:16;;;;;;;18.90;13.37;;;;;;;5.12;73.45;94474.91;4982403;28;20188;-66
2024/02/26 07:05:42;;;;;;;16.07;13.10;;;;;;;5.32;72.58;94475.63;4981696;28;20189;-67
2024/02/26 07:08:07;;;;;;;17.27;13.27;;;;;;;5.09;73.29;94490.69;4987126;28;20177;-70
2024/02/26 07:10:32;;;;;;;18.60;13.53;;;;;;;5.32;72.90;94480.84;4984691;28;20629;-66
2024/02/26 07:12:58;;;;;;;19.97;13.60;;;;;;;5.37;72.01;94477.03;4983971;28;20188;-65
2024/02/26 07:15:24;;;;;;;21.27;13.10;;;;;;;6.20;69.74;94476.81;4978644;28;20310;-69
2024/02/26 07:17:49;;;;;;;18.87;13.10;;;;;;;6.53;68.09;94479.22;4977710;28;20212;-69
2024/02/26 07:20:15;;;;;;;22.73;12.80;;;;;;;6.44;68.35;94477.16;4981247;28;20243;-69
2024/02/26 07:22:42;;;;;;;16.30;11.17;;;;;;;6.37;68.73;94479.28;4983087;28;20901;-68
2024/02/26 07:25:08;;;;;;;21.97;12.23;;;;;;;6.18;68.59;94494.28;4985745;28;20216;-67
2024/02/26 07:27:34;;;;;;;17.23;13.03;;;;;;;5.75;70.21;94510.53;4986193;28;20511;-70
2024/02/26 07:29:59;;;;;;;23.50;12.63;;;;;;;5.85;69.72;94516.88;4986170;28;20531;-68
2024/02/26 07:32:25;;;;;;;15.53;11.60;;;;;;;5.83;69.73;94529.16;4985002;28;20212;-65
2024/02/26 07:34:50;;;;;;;18.37;13.17;;;;;;;5.88;69.76;94529.75;4981458;28;20997;-68
2024/02/26 07:37:15;;;;;;;18.50;12.67;;;;;;;6.08;68.64;94541.69;4976738;28;20296;-69
2024/02/26 07:39:41;;;;;;;16.70;12.00;;;;;;;6.28;67.89;94544.91;4982632;28;20183;-69
2024/02/26 07:42:06;;;;;;;14.90;11.27;;;;;;;6.07;68.54;94550.44;4984267;28;20839;-69
2024/02/26 07:44:33;;;;;;;16.67;12.03;;;;;;;5.96;68.92;94555.38;4984179;28;20204;-70
2024/02/26 07:46:58;;;;;;;17.40;12.20;;;;;;;6.07;69.53;94552.16;4984963;28;20228;-70
2024/02/26 07:49:24;;;;;;;34.00;16.50;;;;;;;6.36;68.44;94559.19;4984638;28;21010;-70
2024/02/26 07:51:49;;;;;;;19.00;11.97;;;;;;;6.55;67.44;94545.94;4981189;28;20751;-70
2024/02/26 07:54:16;;;;;;;18.50;13.17;;;;;;;6.29;67.94;94560.47;4985786;28;20181;-68
2024/02/26 07:56:41;;;;;;;20.70;11.57;;;;;;;6.31;68.09;94561.22;4985934;28;20268;-69
2024/02/26 07:59:07;;;;;;;14.40;12.03;;;;;;;6.21;68.09;94567.03;4985485;28;20543;-70
2024/02/26 08:01:33;;;;;;;22.13;13.43;;;;;;;6.01;68.96;94557.75;4984546;28;20196;-69
2024/02/26 08:03:59;;;;;;;17.47;13.70;;;;;;;6.48;67.19;94556.81;4985430;28;20236;-69
2024/02/26 08:06:25;;;;;;;15.97;10.97;;;;;;;6.86;65.75;94545.94;4976894;28;20538;-69
2024/02/26 08:08:50;;;;;;;18.00;12.87;;;;;;;6.85;65.43;94546.84;4985777;28;20641;-68
2024/02/26 08:11:16;;;;;;;12.40;10.10;;;;;;;6.97;64.73;94551.38;4984461;28;20464;-70
2024/02/26 08:13:41;;;;;;;15.23;12.27;;;;;;;7.06;63.94;94549.94;4985940;28;20359;-68
2024/02/26 08:16:07;;;;;;;14.67;10.83;;;;;;;7.11;64.16;94553.13;4986079;28;20188;-69
2024/02/26 08:18:32;;;;;;;18.97;13.30;;;;;;;7.19;64.28;94561.34;4986610;28;20845;-69
2024/02/26 08:20:58;;;;;;;18.63;11.90;;;;;;;7.30;64.21;94548.50;4985972;28;20204;-69
2024/02/26 08:23:23;;;;;;;18.73;11.73;;;;;;;7.24;63.91;94546.25;4980663;28;22130;-68
2024/02/26 08:25:49;;;;;;;30.60;12.13;;;;;;;7.31;63.50;94549.31;4986604;28;20226;-69
2024/02/26 08:28:14;;;;;;;19.90;12.67;;;;;;;7.19;64.27;94546.53;4986816;28;20200;-69
2024/02/26 08:30:40;;;;;;;16.87;12.60;;;;;;;7.20;64.62;94550.81;4988753;28;20315;-69
2024/02/26 08:33:05;;;;;;;16.40;10.40;;;;;;;7.22;64.07;94548.94;4987759;28;20272;-69
2024/02/26 08:35:30;;;;;;;14.23;11.47;;;;;;;7.45;64.31;94553.72;4988990;28;20188;-67
2024/02/26 08:37:56;;;;;;;17.40;12.10;;;;;;;7.42;64.26;94550.34;4987392;28;20185;-70
2024/02/26 08:40:21;;;;;;;15.23;10.27;;;;;;;7.49;63.35;94548.22;4985726;28;20208;-69
2024/02/26 08:42:47;;;;;;;16.33;11.97;;;;;;;7.51;63.10;94543.75;4987706;28;20227;-69
2024/02/26 08:45:12;;;;;;;15.10;10.63;;;;;;;7.49;64.09;94547.34;4987382;28;20261;-68
2024/02/26 08:47:38;;;;;;;14.53;11.63;;;;;;;7.71;63.15;94545.09;4985982;28;20511;-69
2024/02/26 08:50:04;;;;;;;17.13;11.23;;;;;;;7.91;62.00;94554.28;4986049;28;20235;-70
2024/02/26 08:52:30;;;;;;;13.77;11.00;;;;;;;7.98;61.72;94557.34;4985541;28;20660;-68
2024/02/26 08:54:55;;;;;;;12.00;10.80;;;;;;;8.08;61.87;94550.63;4986154;28;20499;-67
2024/02/26 08:57:21;;;;;;;14.10;11.40;;;;;;;8.17;61.14;94547.44;4983643;28;20267;-69
2024/02/26 08:59:46;;;;;;;12.67;10.00;;;;;;;8.08;61.02;94550.63;4986275;28;20258;-69
2024/02/26 09:02:11;;;;;;;13.50;11.50;;;;;;;7.85;62.42;94546.84;4977808;28;20211;-68
2024/02/26 09:04:37;;;;;;;15.80;11.83;;;;;;;8.05;62.18;94546.44;4985912;28;20215;-68
2024/02/26 09:07:02;;;;;;;13.37;11.07;;;;;;;8.39;61.36;94540.81;4984793;28;20553;-70
2024/02/26 09:09:28;;;;;;;14.57;11.23;;;;;;;8.28;60.54;94538.88;4985885;28;20260;-70
2024/02/26 09:11:55;;;;;;;15.00;11.07;;;;;;;8.39;59.98;94548.66;4985253;28;20680;-69
2024/02/26 09:14:21;;;;;;;15.10;11.70;;;;;;;8.05;61.37;94548.19;4976751;28;20193;-70
2024/02/26 09:16:48;;;;;;;14.30;11.80;;;;;;;8.17;60.90;94544.81;4985448;28;20831;-69
2024/02/26 09:19:13;;;;;;;17.43;11.13;;;;;;;8.23;59.43;94540.97;4984857;28;20424;-71
2024/02/26 09:21:45;;;;;;;12.07;9.87;;;;;;;7.98;60.33;94549.50;4985506;28;20789;-71
2024/02/26 09:24:11;;;;;;;11.23;10.00;;;;;;;8.12;59.35;94553.88;4984872;28;20267;-69
2024/02/26 09:26:38;;;;;;;11.23;10.03;;;;;;;8.39;58.92;94557.31;4985392;28;20419;-69
2024/02/26 09:29:04;;;;;;;13.27;10.53;;;;;;;8.65;59.33;94562.66;4984247;28;21127;-70
2024/02/26 09:31:29;;;;;;;12.57;9.90;;;;;;;8.50;58.89;94554.03;4980052;28;20519;-69
2024/02/26 09:33:55;;;;;;;15.43;10.20;;;;;;;8.47;58.89;94559.47;4985315;28;20185;-69
2024/02/26 09:36:21;;;;;;;12.00;10.23;;;;;;;8.44;59.01;94552.66;4985718;28;20239;-70
2024/02/26 09:38:47;;;;;;;11.27;10.10;;;;;;;8.54;58.75;94559.91;4985590;28;20177;-67
2024/02/26 09:41:16;;;;;;;15.97;9.57;;;;;;;8.60;58.07;94569.97;4987616;28;20502;-69
2024/02/26 09:43:45;;;;;;;15.63;11.37;;;;;;;9.14;57.54;94564.59;4988540;28;20813;-70
2024/02/26 09:46:11;;;;;;;10.90;9.63;;;;;;;9.28;56.93;94555.81;4983199;28;20448;-68
2024/02/26 09:48:37;;;;;;;13.37;10.20;;;;;;;9.94;55.05;94545.97;4989147;28;20432;-70
2024/02/26 09:51:03;;;;;;;19.70;11.03;;;;;;;10.16;54.00;94554.00;4988988;28;20924;-69
2024/02/26 09:53:31;;;;;;;19.10;10.77;;;;;;;10.28;53.48;94552.31;4988593;28;20169;-71
2024/02/26 09:55:58;;;;;;;13.10;10.97;;;;;;;10.18;53.38;94554.72;4988839;28;20192;-70
2024/02/26 09:58:24;;;;;;;11.80;8.23;;;;;;;10.04;52.11;94547.03;4988885;28;20459;-68
2024/02/26 10:00:56;;;;;;;9.10;7.80;;;;;;;9.75;53.16;94556.91;4980371;28;20463;-70
2024/02/26 10:03:24;;;;;;;10.30;8.57;;;;;;;9.98;53.05;94560.53;4989363;28;20503;-68
2024/02/26 10:05:50;;;;;;;12.23;8.70;;;;;;;9.61;53.29;94559.66;4989375;28;20753;-69
2024/02/26 10:08:18;;;;;;;10.77;8.10;;;;;;;9.51;54.83;94559.47;4988591;28;20435;-68
2024/02/26 10:10:44;;;;;;;13.20;8.83;;;;;;;9.40;55.33;94562.00;4988688;28;20197;-69
2024/02/26 10:13:11;;;;;;;17.07;9.93;;;;;;;9.62;55.12;94564.81;4988908;28;20581;-68
2024/02/26 10:15:37;;;;;;;10.50;8.70;;;;;;;9.61;54.53;94563.13;4982368;28;20177;-68
2024/02/26 10:18:06;;;;;;;11.53;9.37;;;;;;;9.83;54.50;94556.41;4989397;28;20416;-69
2024/02/26 10:20:32;;;;;;;10.97;8.93;;;;;;;9.25;55.92;94569.13;4989047;28;20676;-66
2024/02/26 10:22:58;;;;;;;11.70;9.90;;;;;;;9.20;56.90;94571.22;5002071;28;20594;-70
2024/02/26 10:25:24;;;;;;;11.37;9.33;;;;;;;9.37;56.52;94564.81;5008623;28;20463;-69
2024/02/26 10:27:49;;;;;;;12.37;9.07;;;;;;;9.74;55.81;94573.59;5008413;28;20432;-71
2024/02/26 10:30:19;;;;;;;14.23;10.47;;;;;;;9.75;54.83;94572.63;5004662;28;20188;-69
2024/02/26 10:32:48;;;;;;;11.27;8.60;;;;;;;9.93;54.16;94578.38;4988415;28;20185;-70
2024/02/26 10:35:15;;;;;;;11.90;8.57;;;;;;;10.27;52.42;94574.19;4988981;28;20428;-68
2024/02/26 10:37:41;;;;;;;9.63;8.30;;;;;;;10.36;52.31;94570.09;4987804;28;20428;-68
2024/02/26 10:40:10;;;;;;;9.63;7.80;;;;;;;9.90;53.70;94576.81;4988235;28;20443;-69
2024/02/26 10:42:35;;;;;;;11.60;9.30;;;;;;;10.45;53.13;94569.44;4987961;28;21158;-69
2024/02/26 10:45:02;;;;;;;13.03;8.90;;;;;;;10.68;52.60;94567.75;4988068;28;20517;-68
2024/02/26 10:47:29;;;;;;;13.37;9.00;;;;;;;10.53;52.54;94569.69;4986653;28;20173;-69
2024/02/26 10:49:55;;;;;;;9.67;8.63;;;;;;;10.29;52.96;94572.31;4987309;28;20435;-69
2024/02/26 10:52:25;;;;;;;8.67;7.60;;;;;;;10.26;52.81;94566.44;4987023;28;20476;-68
2024/02/26 10:54:54;;;;;;;12.93;7.63;;;;;;;10.00;53.63;94563.91;4986762;28;20427;-70
2024/02/26 10:57:21;;;;;;;11.13;9.07;;;;;;;9.98;53.59;94560.53;4985737;28;20450;-68
2024/02/26 10:59:48;;;;;;;9.43;8.47;;;;;;;9.74;53.91;94558.72;4987492;28;20452;-68
2024/02/26 11:02:14;;;;;;;9.60;8.60;;;;;;;9.59;54.96;94558.94;4983401;28;20444;-69
2024/02/26 11:04:40;;;;;;;13.50;8.40;;;;;;;9.39;55.90;94560.31;4987350;28;21060;-69
2024/02/26 11:07:08;;;;;;;9.20;8.00;;;;;;;9.31;56.00;94555.63;4979316;28;20427;-69
2024/02/26 11:09:35;;;;;;;9.00;7.67;;;;;;;9.65;54.06;94561.97;4987129;28;20199;-68
2024/02/26 11:12:01;;;;;;;10.50;8.33;;;;;;;9.70;53.73;94567.72;4986620;28;20452;-70
2024/02/26 11:14:29;;;;;;;14.10;8.23;;;;;;;9.58;54.33;94567.75;4987777;28;20427;-68
2024/02/26 11:16:56;;;;;;;10.77;7.63;;;;;;;9.77;53.97;94568.13;4979480;28;20447;-68
2024/02/26 11:19:24;;;;;;;11.13;7.60;;;;;;;10.43;52.56;94570.50;4987648;28;20420;-68
2024/02/26 11:21:49;;;;;;;8.67;7.77;;;;;;;10.26;53.58;94567.28;4986123;28;20547;-67
2024/02/26 11:24:18;;;;;;;12.00;8.20;;;;;;;10.32;53.71;94564.25;4987407;28;20555;-67
2024/02/26 11:26:58;;;;;;;12.20;8.40;;;;;;;10.05;55.14;94568.81;4987116;28;20173;-66